Time;durP1;ratioP1;P1;durP2;ratioP2;P2;SDS_P1;SDS_P2;PMS_P1;PMS_P2;Temp;Humidity;BMP_temperature;BMP_pressure;BME280_temperature;BME280_humidity;BME280_pressure;Samples;Min_cycle;Max_cycle;Signal;HPM_P1;HPM_P2
2023/11/10 00:00:11;;;;;;;2.70;1.63;;;8.90;98.00;;;;;;5012074;28;20501;-69
2023/11/10 00:02:39;;;;;;;2.17;1.70;;;8.90;98.00;;;;;;5012164;28;20494;-67
2023/11/10 00:05:07;;;;;;;1.90;1.50;;;8.90;98.00;;;;;;5011789;28;20487;-68
2023/11/10 00:07:35;;;;;;;2.70;1.83;;;8.90;98.00;;;;;;5012064;28;20448;-67
2023/11/10 00:10:02;;;;;;;1.50;1.50;;;8.90;98.00;;;;;;5011872;28;20537;-68
2023/11/10 00:12:30;;;;;;;1.70;1.50;;;8.90;98.00;;;;;;5012150;28;20811;-68
2023/11/10 00:14:59;;;;;;;2.07;1.60;;;8.90;98.00;;;;;;5012285;28;20463;-68
2023/11/10 00:17:26;;;;;;;2.23;1.67;;;8.80;98.00;;;;;;5012115;28;20941;-68
2023/11/10 00:19:53;;;;;;;1.87;1.50;;;8.80;98.00;;;;;;5011939;28;20455;-68
2023/11/10 00:22:20;;;;;;;3.00;1.47;;;8.80;98.00;;;;;;5011884;28;20459;-67
2023/11/10 00:24:47;;;;;;;2.60;1.70;;;8.90;98.00;;;;;;5010967;28;20487;-68
2023/11/10 00:27:15;;;;;;;2.43;1.60;;;8.90;98.00;;;;;;5010447;28;20456;-68
2023/11/10 00:29:42;;;;;;;2.60;1.70;;;8.90;98.00;;;;;;5011648;28;20467;-68
2023/11/10 00:32:11;;;;;;;2.30;1.60;;;8.90;98.00;;;;;;5011327;28;20522;-67
2023/11/10 00:34:39;;;;;;;2.00;1.70;;;9.00;98.00;;;;;;5011084;28;20455;-67
2023/11/10 00:37:06;;;;;;;2.13;1.43;;;9.10;98.00;;;;;;5010828;28;20460;-68
2023/11/10 00:39:33;;;;;;;1.90;1.33;;;9.20;98.00;;;;;;5010903;28;20954;-68
2023/11/10 00:42:00;;;;;;;2.30;1.43;;;9.20;98.00;;;;;;5011697;28;20453;-68
2023/11/10 00:44:28;;;;;;;1.33;1.27;;;9.20;98.00;;;;;;5009964;28;20486;-68
2023/11/10 00:46:59;;;;;;;1.53;1.40;;;9.30;98.00;;;;;;5013014;28;20535;-68
2023/11/10 00:49:27;;;;;;;2.60;1.40;;;9.30;98.00;;;;;;5014922;28;20850;-68
2023/11/10 00:51:54;;;;;;;1.83;1.23;;;9.20;98.00;;;;;;5014935;28;20455;-68
2023/11/10 00:54:21;;;;;;;1.73;1.40;;;9.20;98.00;;;;;;5014918;28;20860;-68
2023/11/10 00:56:48;;;;;;;1.53;1.30;;;9.30;98.00;;;;;;5014806;28;20455;-68
2023/11/10 00:59:17;;;;;;;4.50;1.40;;;9.30;98.00;;;;;;5014676;28;20451;-68
2023/11/10 01:01:44;;;;;;;1.20;1.10;;;9.30;98.00;;;;;;5014771;28;21002;-67
2023/11/10 01:04:11;;;;;;;1.40;1.23;;;9.20;98.00;;;;;;5014369;28;20480;-68
2023/11/10 01:06:40;;;;;;;1.83;1.50;;;9.20;98.00;;;;;;5014795;28;20455;-68
2023/11/10 01:09:07;;;;;;;1.60;1.37;;;9.20;98.00;;;;;;5014501;28;20460;-69
2023/11/10 01:11:34;;;;;;;3.50;1.30;;;9.30;98.00;;;;;;5014505;28;20476;-68
2023/11/10 01:14:02;;;;;;;2.13;1.40;;;9.40;98.00;;;;;;5014364;28;20454;-69
2023/11/10 01:16:29;;;;;;;2.10;1.40;;;9.30;98.00;;;;;;5014472;28;20462;-68
2023/11/10 01:18:57;;;;;;;2.20;1.50;;;9.20;98.00;;;;;;5014401;28;20533;-68
2023/11/10 01:21:24;;;;;;;1.40;1.30;;;9.20;98.00;;;;;;5014251;28;20488;-68
2023/11/10 01:23:52;;;;;;;1.50;1.30;;;9.20;98.00;;;;;;5014391;28;20487;-68
2023/11/10 01:26:20;;;;;;;1.30;1.27;;;9.20;98.00;;;;;;5014348;28;20457;-68
2023/11/10 01:28:47;;;;;;;2.37;1.40;;;9.10;98.00;;;;;;5014283;28;20518;-69
2023/11/10 01:31:15;;;;;;;1.70;1.20;;;9.00;98.00;;;;;;5014393;28;20540;-68
2023/11/10 01:33:42;;;;;;;1.80;1.30;;;8.90;98.00;;;;;;5014183;28;20455;-68
2023/11/10 01:36:10;;;;;;;1.33;1.20;;;8.90;98.00;;;;;;5014391;28;20921;-68
2023/11/10 01:38:37;;;;;;;1.40;1.30;;;8.90;98.00;;;;;;5014128;28;20451;-68
2023/11/10 01:41:05;;;;;;;1.70;1.40;;;8.90;98.00;;;;;;5014170;28;20455;-68
2023/11/10 01:43:32;;;;;;;1.40;1.10;;;8.90;98.00;;;;;;5014062;28;20449;-69
2023/11/10 01:45:59;;;;;;;1.60;1.20;;;8.90;98.00;;;;;;5014210;28;20522;-68
2023/11/10 01:48:26;;;;;;;1.40;1.20;;;8.90;98.00;;;;;;5014370;28;20458;-68
2023/11/10 01:51:01;;;;;;;3.00;1.83;;;8.90;98.00;;;;;;5013956;28;20462;-68
2023/11/10 01:53:28;;;;;;;1.60;1.50;;;8.90;98.00;;;;;;5013845;28;20455;-68
2023/11/10 01:55:56;;;;;;;1.40;1.30;;;8.90;98.00;;;;;;5013998;28;20456;-68
2023/11/10 01:58:25;;;;;;;1.80;1.40;;;9.00;98.00;;;;;;5014136;28;20447;-68
2023/11/10 02:00:53;;;;;;;1.27;1.20;;;9.10;98.00;;;;;;5013690;28;20957;-68
2023/11/10 02:03:21;;;;;;;2.17;1.27;;;9.10;98.00;;;;;;5013700;28;20871;-67
2023/11/10 02:05:48;;;;;;;1.40;1.20;;;9.00;98.00;;;;;;5013581;28;20491;-68
2023/11/10 02:08:15;;;;;;;1.67;1.40;;;9.00;98.00;;;;;;5013733;28;20871;-68
2023/11/10 02:10:42;;;;;;;3.97;1.47;;;9.00;98.00;;;;;;5013388;28;20482;-68
2023/11/10 02:13:21;;;;;;;1.80;1.60;;;8.90;98.00;;;;;;5013423;28;20456;-68
2023/11/10 02:15:50;;;;;;;1.93;1.70;;;9.00;98.00;;;;;;5013418;28;20473;-68
2023/11/10 02:18:18;;;;;;;2.50;1.70;;;9.00;98.00;;;;;;5013149;28;20852;-68
2023/11/10 02:20:45;;;;;;;2.43;1.73;;;9.10;98.00;;;;;;5013163;28;20460;-68
2023/11/10 02:23:12;;;;;;;1.60;1.50;;;9.10;98.00;;;;;;5013204;28;20861;-68
2023/11/10 02:25:41;;;;;;;3.60;2.10;;;9.10;98.00;;;;;;5013245;28;20900;-68
2023/11/10 02:28:08;;;;;;;3.40;1.60;;;9.20;98.00;;;;;;5013218;28;20535;-69
2023/11/10 02:30:35;;;;;;;2.97;1.87;;;9.10;98.00;;;;;;5013125;28;20860;-67
2023/11/10 02:33:02;;;;;;;1.90;1.60;;;9.10;98.00;;;;;;5012954;28;20455;-68
2023/11/10 02:35:29;;;;;;;2.00;1.63;;;9.10;98.00;;;;;;5013392;28;20475;-68
2023/11/10 02:37:56;;;;;;;2.23;1.57;;;9.10;98.00;;;;;;5013123;28;20460;-68
2023/11/10 02:40:23;;;;;;;2.83;1.70;;;9.20;98.00;;;;;;5012814;28;20455;-67
2023/11/10 02:42:51;;;;;;;2.13;1.57;;;9.10;98.00;;;;;;5012767;28;20459;-68
2023/11/10 02:45:19;;;;;;;2.80;1.60;;;9.20;98.00;;;;;;5012615;28;20981;-67
2023/11/10 02:47:46;;;;;;;2.93;1.60;;;9.10;98.00;;;;;;5012681;28;20459;-68
2023/11/10 02:50:13;;;;;;;4.50;2.00;;;9.20;98.00;;;;;;5012699;28;20878;-68
2023/11/10 02:52:40;;;;;;;1.60;1.50;;;9.20;98.00;;;;;;5012673;28;20483;-68
2023/11/10 02:55:08;;;;;;;2.37;1.53;;;9.20;98.00;;;;;;5012730;28;20459;-68
2023/11/10 02:57:35;;;;;;;2.90;1.90;;;9.30;98.00;;;;;;5012672;28;20506;-68
2023/11/10 03:00:05;;;;;;;1.70;1.40;;;9.20;98.00;;;;;;5012653;28;20922;-68
2023/11/10 03:02:32;;;;;;;1.93;1.40;;;9.30;98.00;;;;;;5012449;28;20539;-68
2023/11/10 03:04:59;;;;;;;1.87;1.50;;;9.30;98.00;;;;;;5012662;28;21013;-68
2023/11/10 03:07:26;;;;;;;4.73;2.00;;;9.30;98.00;;;;;;5012654;28;20456;-68
2023/11/10 03:09:53;;;;;;;2.80;1.43;;;9.30;98.00;;;;;;5011689;28;20467;-68
2023/11/10 03:12:20;;;;;;;2.87;1.90;;;9.30;98.00;;;;;;5012607;28;20842;-68
2023/11/10 03:14:48;;;;;;;1.80;1.50;;;9.40;98.00;;;;;;5012383;28;20462;-68
2023/11/10 03:17:17;;;;;;;1.70;1.50;;;9.40;98.00;;;;;;5012529;28;20516;-68
2023/11/10 03:19:45;;;;;;;1.70;1.43;;;9.30;98.00;;;;;;5012411;28;20460;-68
2023/11/10 03:22:13;;;;;;;1.93;1.63;;;9.20;98.00;;;;;;5012136;28;20481;-68
2023/11/10 03:24:40;;;;;;;2.83;2.00;;;9.30;98.00;;;;;;5012505;28;20577;-68
2023/11/10 03:27:09;;;;;;;1.83;1.37;;;9.20;98.00;;;;;;5012368;28;21012;-68
2023/11/10 03:29:36;;;;;;;1.70;1.60;;;9.20;98.00;;;;;;5012640;28;20455;-68
2023/11/10 03:32:04;;;;;;;1.90;1.60;;;9.20;98.00;;;;;;5012416;28;20463;-68
2023/11/10 03:34:34;;;;;;;2.20;1.60;;;9.20;98.00;;;;;;5012550;28;20463;-68
2023/11/10 03:37:01;;;;;;;2.33;1.60;;;9.20;98.00;;;;;;5011396;28;20538;-68
2023/11/10 03:39:28;;;;;;;1.60;1.43;;;9.20;98.00;;;;;;5012425;28;20484;-68
2023/11/10 03:42:00;;;;;;;1.70;1.40;;;9.10;98.00;;;;;;5011978;28;20452;-68
2023/11/10 03:44:28;;;;;;;2.00;1.47;;;9.20;98.00;;;;;;5012374;28;20490;-68
2023/11/10 03:46:55;;;;;;;1.60;1.33;;;9.20;98.00;;;;;;5011998;28;20861;-68
2023/11/10 03:49:26;;;;;;;2.10;1.50;;;9.20;98.00;;;;;;5011779;28;20510;-68
2023/11/10 03:51:55;;;;;;;1.83;1.60;;;9.30;98.00;;;;;;5012008;28;20966;-68
2023/11/10 03:54:22;;;;;;;1.53;1.40;;;9.20;98.00;;;;;;5012043;28;20480;-68
2023/11/10 03:56:50;;;;;;;2.70;1.50;;;9.10;98.00;;;;;;5011773;28;20462;-68
2023/11/10 03:59:18;;;;;;;2.67;1.50;;;9.10;98.00;;;;;;5011851;28;20451;-68
2023/11/10 04:01:45;;;;;;;1.30;1.30;;;9.10;98.00;;;;;;5011443;28;20554;-68
2023/11/10 04:04:12;;;;;;;2.43;1.40;;;9.20;98.00;;;;;;5011860;28;20448;-68
2023/11/10 04:06:39;;;;;;;1.40;1.30;;;9.20;98.00;;;;;;5011797;28;20868;-68
2023/11/10 04:09:08;;;;;;;1.50;1.40;;;9.20;98.00;;;;;;5011379;28;20458;-68
2023/11/10 04:11:35;;;;;;;2.07;1.33;;;9.20;98.00;;;;;;5011763;28;20454;-68
2023/11/10 04:14:02;;;;;;;1.90;1.50;;;9.30;98.00;;;;;;5027760;28;20454;-68
2023/11/10 04:16:31;;;;;;;1.63;1.30;;;9.30;98.00;;;;;;5031346;28;20929;-68
2023/11/10 04:18:59;;;;;;;1.50;1.20;;;9.20;98.00;;;;;;5031338;28;20509;-68
2023/11/10 04:21:27;;;;;;;1.70;1.50;;;9.10;98.00;;;;;;5032390;28;20971;-68
2023/11/10 04:23:54;;;;;;;2.40;1.60;;;9.10;98.00;;;;;;5033759;28;20453;-67
2023/11/10 04:26:22;;;;;;;1.57;1.30;;;9.10;98.00;;;;;;5035179;28;20487;-67
2023/11/10 04:28:49;;;;;;;1.70;1.40;;;9.30;98.00;;;;;;5035185;28;20462;-68
2023/11/10 04:31:17;;;;;;;1.40;1.20;;;9.40;98.00;;;;;;5035070;28;20452;-68
2023/11/10 04:33:44;;;;;;;1.50;1.23;;;9.30;98.00;;;;;;5035080;28;20451;-68
2023/11/10 04:36:12;;;;;;;1.20;1.20;;;9.20;98.00;;;;;;5034867;28;20450;-68
2023/11/10 04:38:40;;;;;;;1.60;1.13;;;9.20;98.00;;;;;;5034974;28;20450;-68
2023/11/10 04:41:08;;;;;;;1.70;1.10;;;9.20;98.00;;;;;;5034800;28;20951;-68
2023/11/10 04:43:36;;;;;;;1.63;1.10;;;9.10;98.00;;;;;;5034882;28;20949;-68
2023/11/10 04:46:05;;;;;;;1.43;1.23;;;9.20;98.00;;;;;;5034826;28;20576;-68
2023/11/10 04:48:32;;;;;;;1.50;1.20;;;9.20;98.00;;;;;;5034856;28;20539;-68
2023/11/10 04:51:03;;;;;;;2.27;1.20;;;9.10;98.00;;;;;;5034224;28;20473;-68
2023/11/10 04:53:30;;;;;;;1.20;1.13;;;9.10;98.00;;;;;;5034839;28;20466;-68
2023/11/10 04:55:57;;;;;;;1.40;1.17;;;9.20;98.00;;;;;;5034849;28;20450;-68
2023/11/10 04:58:24;;;;;;;1.30;1.00;;;9.20;98.00;;;;;;5034929;28;20451;-68
2023/11/10 05:00:52;;;;;;;1.20;1.00;;;9.20;98.00;;;;;;5034691;28;20519;-68
2023/11/10 05:03:19;;;;;;;1.47;1.20;;;9.20;98.00;;;;;;5034617;28;20459;-68
2023/11/10 05:05:48;;;;;;;1.43;1.30;;;9.20;98.00;;;;;;5034636;28;20505;-68
2023/11/10 05:08:15;;;;;;;1.27;1.10;;;9.00;98.00;;;;;;5034580;28;20454;-68
2023/11/10 05:10:43;;;;;;;1.30;1.17;;;9.10;98.00;;;;;;5034542;28;20488;-68
2023/11/10 05:13:10;;;;;;;1.20;1.10;;;8.90;98.00;;;;;;5033210;28;20965;-68
2023/11/10 05:15:38;;;;;;;2.10;1.17;;;8.90;98.00;;;;;;5034054;28;21011;-68
2023/11/10 05:18:07;;;;;;;1.20;1.10;;;8.90;98.00;;;;;;5034674;28;20463;-68
2023/11/10 05:20:34;;;;;;;1.20;1.10;;;8.80;98.00;;;;;;5034577;28;20520;-68
2023/11/10 05:23:01;;;;;;;1.30;1.10;;;8.80;98.00;;;;;;5034091;28;20528;-68
2023/11/10 05:25:36;;;;;;;1.50;1.23;;;8.80;98.00;;;;;;5034150;28;20482;-68
2023/11/10 05:28:03;;;;;;;1.20;1.10;;;8.80;98.00;;;;;;5033836;28;20453;-68
2023/11/10 05:30:30;;;;;;;1.20;1.00;;;8.80;98.00;;;;;;5033693;28;20541;-68
2023/11/10 05:32:57;;;;;;;1.20;1.00;;;8.90;98.00;;;;;;5032941;28;20446;-68
2023/11/10 05:35:26;;;;;;;1.20;1.10;;;8.80;98.00;;;;;;5033344;28;20547;-68
2023/11/10 05:37:53;;;;;;;1.30;1.20;;;8.70;98.00;;;;;;5033084;28;20451;-67
2023/11/10 05:40:21;;;;;;;1.20;1.00;;;8.80;98.00;;;;;;5033121;28;20447;-67
2023/11/10 05:42:48;;;;;;;1.93;1.03;;;8.80;98.00;;;;;;5033058;28;20450;-67
2023/11/10 05:45:15;;;;;;;1.20;1.00;;;8.90;98.00;;;;;;5032971;28;20505;-68
2023/11/10 05:47:42;;;;;;;1.23;1.00;;;8.80;98.00;;;;;;5033217;28;20450;-68
2023/11/10 05:50:10;;;;;;;1.23;1.07;;;8.80;98.00;;;;;;5032698;28;20463;-68
2023/11/10 05:52:40;;;;;;;1.20;1.00;;;8.80;98.00;;;;;;5033213;28;20860;-68
2023/11/10 05:55:08;;;;;;;1.20;1.10;;;8.80;98.00;;;;;;5032960;28;20832;-68
2023/11/10 05:57:36;;;;;;;1.30;1.10;;;8.70;98.00;;;;;;5032739;28;21004;-68
2023/11/10 06:00:05;;;;;;;1.20;1.00;;;8.80;98.00;;;;;;5032770;28;20458;-67
2023/11/10 06:02:33;;;;;;;1.20;0.90;;;8.90;98.00;;;;;;5032923;28;20944;-68
2023/11/10 06:05:00;;;;;;;1.20;1.10;;;8.80;98.00;;;;;;5032656;28;20473;-68
2023/11/10 06:07:27;;;;;;;1.20;1.00;;;8.80;98.00;;;;;;5032680;28;20455;-68
2023/11/10 06:09:57;;;;;;;1.20;1.10;;;8.80;98.00;;;;;;5032623;28;20903;-68
2023/11/10 06:12:24;;;;;;;1.20;0.90;;;8.90;98.00;;;;;;5032899;28;20897;-68
2023/11/10 06:14:52;;;;;;;1.27;1.00;;;8.80;98.00;;;;;;5033108;28;20979;-68
2023/11/10 06:17:18;;;;;;;1.10;1.00;;;8.70;98.00;;;;;;5033051;28;20453;-68
2023/11/10 06:19:46;;;;;;;1.20;1.10;;;8.70;98.00;;;;;;5032860;28;20556;-69
2023/11/10 06:22:13;;;;;;;1.20;0.90;;;8.80;98.00;;;;;;5032504;28;20476;-68
2023/11/10 06:24:42;;;;;;;1.17;1.00;;;8.80;98.00;;;;;;5032381;28;20455;-68
2023/11/10 06:27:10;;;;;;;1.13;1.00;;;8.80;98.00;;;;;;5032303;28;20493;-68
2023/11/10 06:29:37;;;;;;;1.20;1.00;;;8.90;98.00;;;;;;5032185;28;20460;-68
2023/11/10 06:32:06;;;;;;;1.57;1.10;;;8.80;98.00;;;;;;5032406;28;20857;-68
2023/11/10 06:34:33;;;;;;;1.47;1.10;;;8.80;98.00;;;;;;5031164;28;20545;-68
2023/11/10 06:37:01;;;;;;;1.20;1.00;;;8.80;98.00;;;;;;5032218;28;20960;-68
2023/11/10 06:39:28;;;;;;;1.20;1.00;;;8.80;98.00;;;;;;5031874;28;20544;-68
2023/11/10 06:41:55;;;;;;;1.10;1.00;;;8.70;98.00;;;;;;5032719;28;20552;-68
2023/11/10 06:44:23;;;;;;;1.30;1.00;;;8.80;98.00;;;;;;5030658;28;20955;-68
2023/11/10 06:46:52;;;;;;;1.50;1.20;;;8.80;98.00;;;;;;5033017;28;20569;-68
2023/11/10 06:49:19;;;;;;;1.20;1.00;;;8.80;98.00;;;;;;5032957;28;20454;-68
2023/11/10 06:51:46;;;;;;;1.17;1.00;;;8.80;98.00;;;;;;5032801;28;20448;-68
2023/11/10 06:54:13;;;;;;;1.87;1.00;;;8.90;98.00;;;;;;5032616;28;20455;-68
2023/11/10 06:56:40;;;;;;;1.30;1.23;;;8.90;98.00;;;;;;5032824;28;20915;-68
2023/11/10 06:59:07;;;;;;;1.77;1.30;;;8.90;98.00;;;;;;5032890;28;20452;-63
2023/11/10 07:01:36;;;;;;;1.83;1.40;;;8.90;98.00;;;;;;5032870;28;20504;-63
2023/11/10 07:04:04;;;;;;;3.33;1.00;;;8.90;98.00;;;;;;5032727;28;20586;-64
2023/11/10 07:06:31;;;;;;;1.30;1.03;;;8.90;98.00;;;;;;5032740;28;20586;-63
2023/11/10 07:09:01;;;;;;;1.30;1.10;;;9.10;98.00;;;;;;5032238;28;20816;-64
2023/11/10 07:11:28;;;;;;;1.20;1.07;;;9.00;98.00;;;;;;5032181;28;20458;-64
2023/11/10 07:13:55;;;;;;;1.20;1.00;;;9.00;98.00;;;;;;5031990;28;20477;-64
2023/11/10 07:16:26;;;;;;;1.20;0.90;;;9.00;98.00;;;;;;5031753;28;20455;-63
2023/11/10 07:18:55;;;;;;;1.37;1.07;;;9.00;98.00;;;;;;5031564;28;20575;-64
2023/11/10 07:21:22;;;;;;;1.20;1.10;;;9.10;98.00;;;;;;5031410;28;20500;-64
2023/11/10 07:23:49;;;;;;;1.53;1.20;;;9.10;98.00;;;;;;5031429;28;20443;-64
2023/11/10 07:26:17;;;;;;;1.20;1.00;;;9.10;98.00;;;;;;5031606;28;20493;-64
2023/11/10 07:28:44;;;;;;;1.20;1.00;;;9.10;98.00;;;;;;5031342;28;20499;-64
2023/11/10 07:31:11;;;;;;;1.47;1.10;;;9.00;98.00;;;;;;5031356;28;20459;-64
2023/11/10 07:33:38;;;;;;;1.60;1.10;;;9.10;98.00;;;;;;5031554;28;20937;-64
2023/11/10 07:36:07;;;;;;;2.07;1.30;;;9.10;98.00;;;;;;5031192;28;20870;-64
2023/11/10 07:38:39;;;;;;;1.30;1.13;;;9.20;98.00;;;;;;5031158;28;20455;-64
2023/11/10 07:41:06;;;;;;;1.50;1.03;;;9.30;98.00;;;;;;5031062;28;20454;-64
2023/11/10 07:43:33;;;;;;;2.07;1.00;;;9.20;98.00;;;;;;5031228;28;20452;-64
2023/11/10 07:46:04;;;;;;;1.37;1.20;;;9.10;98.00;;;;;;5031363;28;20484;-64
2023/11/10 07:48:31;;;;;;;1.20;1.10;;;9.10;98.00;;;;;;5031219;28;20826;-64
2023/11/10 07:50:58;;;;;;;1.70;1.10;;;9.20;98.00;;;;;;5031209;28;21041;-64
2023/11/10 07:53:27;;;;;;;1.20;1.10;;;9.30;98.00;;;;;;5030951;28;20935;-64
2023/11/10 07:55:54;;;;;;;1.10;0.90;;;9.30;98.00;;;;;;5033009;28;20485;-64
2023/11/10 07:58:21;;;;;;;1.27;1.00;;;9.30;98.00;;;;;;5034879;28;20744;-64
2023/11/10 08:00:51;;;;;;;1.40;1.10;;;9.40;98.00;;;;;;5035058;28;20557;-64
2023/11/10 08:03:19;;;;;;;1.27;1.10;;;9.40;98.00;;;;;;5034728;28;20472;-64
2023/11/10 08:05:49;;;;;;;1.20;1.03;;;9.60;98.00;;;;;;5034877;28;20980;-64
2023/11/10 08:08:16;;;;;;;1.17;1.10;;;9.70;98.00;;;;;;5035185;28;20528;-64
2023/11/10 08:10:45;;;;;;;1.20;1.10;;;9.50;98.00;;;;;;5034863;28;20457;-64
2023/11/10 08:13:12;;;;;;;1.30;1.13;;;9.50;98.00;;;;;;5034725;28;20449;-64
2023/11/10 08:15:41;;;;;;;1.47;1.10;;;9.60;98.00;;;;;;5034761;28;20451;-64
2023/11/10 08:18:08;;;;;;;1.30;1.10;;;9.60;98.00;;;;;;5034731;28;20444;-64
2023/11/10 08:20:35;;;;;;;1.10;1.00;;;9.70;98.00;;;;;;5034691;28;20469;-64
2023/11/10 08:23:02;;;;;;;1.30;1.10;;;9.70;98.00;;;;;;5034577;28;20467;-64
2023/11/10 08:25:29;;;;;;;1.20;1.10;;;9.70;98.00;;;;;;5034717;28;20451;-64
2023/11/10 08:27:58;;;;;;;1.40;1.07;;;9.80;98.00;;;;;;5035347;28;20491;-64
2023/11/10 08:30:26;;;;;;;1.10;1.00;;;9.80;98.00;;;;;;5035737;28;20508;-64
2023/11/10 08:32:53;;;;;;;1.20;1.00;;;9.90;98.00;;;;;;5035436;28;20457;-64
2023/11/10 08:35:21;;;;;;;1.20;1.07;;;10.00;98.00;;;;;;5034217;28;20462;-64
2023/11/10 08:37:48;;;;;;;1.30;1.07;;;9.90;98.00;;;;;;5035536;28;20451;-63
2023/11/10 08:40:16;;;;;;;1.47;1.07;;;9.90;98.00;;;;;;5035337;28;20446;-64
2023/11/10 08:42:43;;;;;;;1.20;1.00;;;9.90;98.00;;;;;;5034820;28;20446;-64
2023/11/10 08:45:15;;;;;;;1.20;1.00;;;9.90;98.00;;;;;;5034846;28;20452;-64
2023/11/10 08:47:42;;;;;;;1.30;1.20;;;9.80;98.00;;;;;;5035416;28;20489;-64
2023/11/10 08:50:11;;;;;;;1.60;1.20;;;9.80;98.00;;;;;;5034642;28;20459;-64
2023/11/10 08:52:41;;;;;;;1.30;1.10;;;9.70;98.00;;;;;;5034998;28;20895;-64
2023/11/10 08:55:11;;;;;;;1.30;1.20;;;9.80;98.00;;;;;;5033755;28;20450;-64
2023/11/10 08:57:39;;;;;;;1.60;1.13;;;9.80;98.00;;;;;;5034911;28;20582;-64
2023/11/10 09:00:11;;;;;;;1.50;1.10;;;9.70;98.00;;;;;;5034340;28;20461;-64
2023/11/10 09:02:41;;;;;;;1.30;1.10;;;9.60;98.00;;;;;;5034633;28;20455;-63
2023/11/10 09:05:10;;;;;;;1.70;1.00;;;9.60;98.00;;;;;;5033410;28;20996;-64
2023/11/10 09:07:38;;;;;;;2.53;1.40;;;9.60;98.00;;;;;;5018670;28;20528;-64
2023/11/10 09:10:05;;;;;;;1.60;1.17;;;9.70;98.00;;;;;;5014109;28;20487;-64
2023/11/10 09:12:33;;;;;;;1.20;1.10;;;9.80;98.00;;;;;;5014676;28;20456;-64
2023/11/10 09:15:00;;;;;;;1.20;1.00;;;9.70;98.00;;;;;;5014566;28;20541;-64
2023/11/10 09:17:31;;;;;;;1.20;1.00;;;9.80;98.00;;;;;;5014759;28;20452;-63
2023/11/10 09:20:00;;;;;;;1.40;1.00;;;9.90;98.00;;;;;;5013127;28;20486;-64
2023/11/10 09:22:27;;;;;;;1.20;1.10;;;9.80;98.00;;;;;;5014342;28;20452;-64
2023/11/10 09:24:54;;;;;;;1.20;1.10;;;9.80;98.00;;;;;;5014351;28;20461;-63
2023/11/10 09:27:21;;;;;;;1.50;1.00;;;9.80;98.00;;;;;;5008445;28;20496;-63
2023/11/10 09:29:49;;;;;;;1.20;1.00;;;9.90;98.00;;;;;;4994363;28;20466;-63
2023/11/10 09:32:16;;;;;;;1.27;1.00;;;10.00;98.00;;;;;;4993849;28;20458;-63
2023/11/10 09:34:43;;;;;;;1.40;1.10;;;10.00;98.00;;;;;;4994521;28;20454;-63
2023/11/10 09:37:14;;;;;;;1.20;1.00;;;10.10;98.00;;;;;;4994373;28;20861;-63
2023/11/10 09:39:42;;;;;;;1.20;1.07;;;10.30;98.00;;;;;;4994688;28;20459;-63
2023/11/10 09:42:12;;;;;;;1.40;1.07;;;10.30;98.00;;;;;;4994841;28;20511;-63
2023/11/10 09:44:42;;;;;;;1.10;1.00;;;10.30;98.00;;;;;;4994627;28;20460;-63
2023/11/10 09:47:09;;;;;;;1.20;1.00;;;;;;;;;;4994640;28;20488;-63
2023/11/10 09:49:37;;;;;;;1.20;1.00;;;10.30;98.00;;;;;;4994656;28;20479;-63
2023/11/10 09:52:05;;;;;;;1.20;1.10;;;10.50;98.00;;;;;;4994648;28;20464;-63
2023/11/10 09:54:35;;;;;;;1.43;1.10;;;10.70;98.00;;;;;;4994593;28;20863;-63
2023/11/10 09:57:03;;;;;;;1.70;1.20;;;10.70;98.00;;;;;;4994919;28;20499;-63
2023/11/10 09:59:32;;;;;;;1.20;1.00;;;10.80;98.00;;;;;;4994559;28;20957;-64
2023/11/10 10:02:01;;;;;;;3.67;1.17;;;10.90;98.00;;;;;;4993510;28;20511;-63
2023/11/10 10:04:28;;;;;;;1.20;1.10;;;11.00;98.00;;;;;;4993231;28;21061;-64
2023/11/10 10:06:57;;;;;;;2.07;1.17;;;11.10;98.00;;;;;;4994307;28;20491;-63
2023/11/10 10:09:26;;;;;;;1.60;1.13;;;11.20;98.00;;;;;;4994135;28;20469;-64
2023/11/10 10:11:56;;;;;;;2.20;1.40;;;11.30;98.00;;;;;;4994384;28;20460;-64
2023/11/10 10:14:24;;;;;;;1.30;1.03;;;11.30;98.00;;;;;;4994212;28;20453;-63
2023/11/10 10:16:53;;;;;;;1.20;1.00;;;11.30;98.00;;;;;;4994339;28;20469;-63
2023/11/10 10:19:27;;;;;;;2.07;1.43;;;11.50;98.00;;;;;;4993316;28;20467;-63
2023/11/10 10:21:55;;;;;;;1.30;1.10;;;11.60;98.00;;;;;;4994145;28;20455;-64
2023/11/10 10:24:22;;;;;;;1.40;1.20;;;11.70;98.00;;;;;;4993919;28;20468;-63
2023/11/10 10:26:51;;;;;;;1.50;1.20;;;11.70;98.00;;;;;;4994420;28;20590;-63
2023/11/10 10:29:19;;;;;;;1.30;1.10;;;11.70;98.00;;;;;;4992229;28;20838;-63
2023/11/10 10:31:46;;;;;;;1.83;1.20;;;11.50;98.00;;;;;;4993606;28;20469;-64
2023/11/10 10:34:15;;;;;;;5.83;1.30;;;11.50;98.00;;;;;;4993712;28;20461;-63
2023/11/10 10:36:44;;;;;;;1.87;1.10;;;11.70;98.00;;;;;;4993232;28;20499;-62
2023/11/10 10:39:16;;;;;;;1.87;1.20;;;11.80;98.00;;;;;;5003040;28;20473;-64
2023/11/10 10:44:12;;;;;;;1.30;1.10;;;11.80;98.00;;;;;;5221181;22;20499;-58
2023/11/10 10:46:41;;;;;;;1.20;1.00;;;11.50;98.00;;;;;;5032226;28;21012;-59
2023/11/10 10:49:12;;;;;;;1.30;1.10;;;11.30;98.00;;;;;;5032319;28;20454;-59
2023/11/10 10:51:39;;;;;;;1.40;1.10;;;11.00;98.00;;;;;;5228873;22;20440;-59
2023/11/10 10:54:08;;;;;;;1.20;1.00;;;10.70;98.00;;;;;;5032039;28;20478;-59
2023/11/10 10:56:37;;;;;;;1.20;1.10;;;10.40;98.00;;;;;;5032436;28;20502;-60
2023/11/10 10:59:06;;;;;;;1.30;1.20;;;10.30;98.00;;;;;;5032358;28;20540;-60
2023/11/10 11:01:34;;;;;;;1.20;1.10;;;10.30;98.00;;;;;;5032397;28;21002;-60
2023/11/10 11:04:22;;;;;;;1.63;1.13;;;10.10;98.00;;;;;;5032509;28;21053;-62
2023/11/10 11:07:12;;;;;;;1.27;1.10;;;9.90;98.00;;;;;;5019689;28;20482;-63
2023/11/10 11:10:07;;;;;;;1.20;1.10;;;9.90;98.00;;;;;;5012600;28;20547;-63
2023/11/10 11:13:18;;;;;;;1.20;1.10;;;9.90;98.00;;;;;;5012665;28;20491;-63
2023/11/10 11:15:59;;;;;;;1.33;1.00;;;9.90;98.00;;;;;;5012039;28;20525;-63
2023/11/10 11:18:56;;;;;;;1.37;1.00;;;9.90;98.00;;;;;;5012466;28;20463;-63
2023/11/10 11:21:26;;;;;;;1.10;1.03;;;10.00;98.00;;;;;;5012212;28;20503;-63
2023/11/10 11:23:53;;;;;;;1.30;1.20;;;10.00;98.00;;;;;;5012165;28;20459;-63
2023/11/10 11:26:20;;;;;;;1.30;1.10;;;9.80;98.00;;;;;;5012504;28;20466;-63
2023/11/10 11:28:47;;;;;;;1.20;1.10;;;9.80;98.00;;;;;;5011627;28;20486;-63
2023/11/10 11:31:14;;;;;;;1.10;1.00;;;10.00;98.00;;;;;;5010992;28;20448;-60
2023/11/10 11:33:48;;;;;;;1.40;1.10;;;10.10;98.00;;;;;;5010280;28;20456;-61
2023/11/10 11:36:18;;;;;;;1.30;1.07;;;10.20;98.00;;;;;;5011889;28;20454;-60
2023/11/10 11:38:48;;;;;;;1.27;1.17;;;10.20;98.00;;;;;;5012109;28;20458;-60
2023/11/10 11:41:15;;;;;;;2.30;1.10;;;10.10;98.00;;;;;;5012089;28;20542;-60
2023/11/10 11:43:49;;;;;;;1.40;1.20;;;10.10;98.00;;;;;;5012228;28;20462;-60
2023/11/10 11:46:16;;;;;;;1.60;1.30;;;10.00;98.00;;;;;;5012140;28;20997;-60
2023/11/10 11:48:44;;;;;;;1.33;1.00;;;9.80;98.00;;;;;;5011848;28;20633;-60
2023/11/10 11:51:12;;;;;;;1.30;1.20;;;9.80;98.00;;;;;;5011898;28;20451;-60
2023/11/10 11:53:39;;;;;;;1.23;1.17;;;9.90;98.00;;;;;;5011894;28;20530;-60
2023/11/10 11:56:08;;;;;;;1.20;1.10;;;10.00;98.00;;;;;;5012104;28;20466;-60
2023/11/10 11:58:39;;;;;;;1.20;1.10;;;10.00;98.00;;;;;;5012114;28;20464;-60
2023/11/10 12:01:06;;;;;;;1.40;1.20;;;10.00;98.00;;;;;;5011749;28;20467;-60
2023/11/10 12:03:35;;;;;;;1.40;1.10;;;9.90;98.00;;;;;;5011966;28;20462;-60
2023/11/10 12:06:04;;;;;;;1.60;1.10;;;9.90;98.00;;;;;;5012108;28;20505;-60
2023/11/10 12:08:31;;;;;;;1.30;1.10;;;10.00;98.00;;;;;;5011428;28;20526;-60
2023/11/10 12:10:58;;;;;;;1.20;1.10;;;9.90;98.00;;;;;;5011953;28;20452;-60
2023/11/10 12:13:27;;;;;;;3.37;1.30;;;9.80;98.00;;;;;;5012135;28;20447;-60
2023/11/10 12:15:57;;;;;;;1.70;1.40;;;9.90;98.00;;;;;;5011630;28;20965;-60
2023/11/10 12:18:26;;;;;;;1.60;1.20;;;9.90;98.00;;;;;;5011672;28;20480;-60
2023/11/10 12:20:56;;;;;;;1.30;1.20;;;9.80;98.00;;;;;;5011537;28;20530;-60
2023/11/10 12:23:23;;;;;;;1.57;1.10;;;9.70;98.00;;;;;;5011680;28;20803;-60
2023/11/10 12:25:59;;;;;;;1.30;1.20;;;9.70;98.00;;;;;;5010524;28;20468;-60
2023/11/10 12:28:28;;;;;;;1.33;1.13;;;9.70;98.00;;;;;;5011633;28;20482;-60
2023/11/10 12:30:58;;;;;;;1.70;1.27;;;9.90;98.00;;;;;;5011395;28;20452;-63
2023/11/10 12:33:25;;;;;;;1.37;1.20;;;10.20;98.00;;;;;;5011058;28;20829;-63
2023/11/10 12:35:52;;;;;;;1.60;1.20;;;10.20;98.00;;;;;;5011550;28;20456;-63
2023/11/10 12:38:19;;;;;;;3.00;1.40;;;10.00;98.00;;;;;;5011456;28;20451;-63
2023/11/10 12:40:50;;;;;;;1.60;1.20;;;10.10;98.00;;;;;;5010358;28;20464;-63
2023/11/10 12:43:17;;;;;;;1.40;1.30;;;10.70;98.00;;;;;;5013873;28;20879;-63
2023/11/10 12:45:46;;;;;;;1.30;1.10;;;11.50;98.00;;;;;;5015078;28;20495;-63
2023/11/10 12:48:14;;;;;;;3.03;1.30;;;12.20;98.00;;;;;;5015071;28;20486;-63
2023/11/10 12:50:43;;;;;;;7.73;1.53;;;12.80;98.00;;;;;;5014984;28;20458;-63
2023/11/10 12:53:11;;;;;;;1.60;1.20;;;13.50;98.00;;;;;;5014991;28;20874;-63
2023/11/10 12:55:38;;;;;;;1.37;1.17;;;14.20;98.00;;;;;;5015131;28;20497;-64
2023/11/10 12:58:06;;;;;;;1.37;1.20;;;14.60;98.00;;;;;;5014929;28;20539;-63
2023/11/10 13:00:35;;;;;;;1.50;1.20;;;14.80;98.00;;;;;;5013426;28;20448;-63
2023/11/10 13:03:03;;;;;;;1.50;1.20;;;14.90;98.00;;;;;;5013419;28;20492;-64